createdAt,value
2022-12-18T00:01:58.029Z,98277.33
2022-12-18T00:04:28.448Z,98267.17
2022-12-18T00:07:01.663Z,98269.88
2022-12-18T00:09:39.500Z,98270.97
2022-12-18T00:14:36.231Z,98271.17
2022-12-18T00:17:06.712Z,98267.85
2022-12-18T00:19:36.823Z,98275.74
2022-12-18T00:22:08.213Z,98274.89
2022-12-18T00:24:39.483Z,98283.87
2022-12-18T00:27:09.737Z,98283.01
2022-12-18T00:29:41.614Z,98285.19
2022-12-18T00:32:11.926Z,98293.08
2022-12-18T00:34:42.356Z,98293.86
2022-12-18T00:37:15.621Z,98296.86
2022-12-18T00:39:44.247Z,98298.19
2022-12-18T00:42:32.008Z,98307.17
2022-12-18T00:45:07.657Z,98304.39
2022-12-18T00:47:35.464Z,98310.64
2022-12-18T00:50:05.842Z,98311.14
2022-12-18T00:52:36.297Z,98310.87
2022-12-18T00:55:07.952Z,98311.37
2022-12-18T00:57:37.940Z,98315.42
2022-12-18T01:00:09.657Z,98312.64
2022-12-18T01:02:39.921Z,98319.71
2022-12-18T01:05:10.851Z,98327.35
2022-12-18T01:07:41.211Z,98328.67
2022-12-18T01:10:12.429Z,98330.00
2022-12-18T01:12:42.369Z,98330.77
2022-12-18T01:15:12.798Z,98341.66
2022-12-18T01:17:42.899Z,98334.23
2022-12-18T01:20:13.925Z,98338.87
2022-12-18T01:22:43.800Z,98341.56
2022-12-18T01:25:14.089Z,98343.70
2022-12-18T01:27:47.055Z,98342.29
2022-12-18T01:30:18.198Z,98347.20
2022-12-18T01:32:48.760Z,98347.97
2022-12-18T01:35:19.686Z,98343.78
2022-12-18T01:37:50.766Z,98354.98
2022-12-18T01:40:21.427Z,98351.06
2022-12-18T01:42:57.248Z,98349.93
2022-12-18T01:45:34.801Z,98361.94
2022-12-18T01:48:06.288Z,98359.70
2022-12-18T01:50:48.457Z,98365.39
2022-12-18T01:53:24.226Z,98365.34
2022-12-18T01:55:57.599Z,98363.66
2022-12-18T01:58:42.488Z,98365.24
2022-12-18T02:01:12.744Z,98367.41
2022-12-18T02:03:44.934Z,98373.05
2022-12-18T02:06:29.846Z,98370.86
2022-12-18T02:09:14.917Z,98378.83
2022-12-18T02:11:55.986Z,98381.61
2022-12-18T02:14:45.562Z,98385.72
2022-12-18T02:17:24.390Z,98376.22
2022-12-18T02:20:09.537Z,98381.50
2022-12-18T02:23:08.010Z,98376.09
2022-12-18T02:25:44.782Z,98373.95
2022-12-18T02:28:16.712Z,98374.00
2022-12-18T02:30:48.488Z,98380.56
2022-12-18T02:33:18.643Z,98381.19
2022-12-18T02:35:48.664Z,98381.23
2022-12-18T02:38:21.354Z,98386.75
2022-12-18T02:40:56.879Z,98384.89
2022-12-18T02:43:27.201Z,98383.58
2022-12-18T02:46:00.171Z,98381.90
2022-12-18T02:48:35.436Z,98384.72
2022-12-18T02:51:26.474Z,98386.45
2022-12-18T02:54:07.150Z,98381.55
2022-12-18T02:56:49.173Z,98384.63
2022-12-18T02:59:24.232Z,98389.02
2022-12-18T03:01:58.775Z,98389.88
2022-12-18T03:04:50.133Z,98387.46
2022-12-18T03:07:24.190Z,98392.71
2022-12-18T03:09:55.539Z,98387.01
2022-12-18T03:12:37.822Z,98387.88
2022-12-18T03:15:20.088Z,98392.02
2022-12-18T03:17:53.645Z,98389.84
2022-12-18T03:20:24.684Z,98391.27
2022-12-18T03:22:57.125Z,98396.27
2022-12-18T03:25:27.516Z,98393.58
2022-12-18T03:28:01.901Z,98396.04
2022-12-18T03:30:32.889Z,98391.98
2022-12-18T03:33:06.027Z,98397.50
2022-12-18T03:35:38.529Z,98393.44
2022-12-18T03:38:09.053Z,98401.92
2022-12-18T03:40:48.240Z,98399.14
2022-12-18T03:43:33.181Z,98401.01
2022-12-18T03:46:21.377Z,98400.64
2022-12-18T03:48:53.758Z,98398.45
2022-12-18T03:51:44.836Z,98403.87
2022-12-18T03:54:15.033Z,98417.77
2022-12-18T03:56:47.538Z,98416.90
2022-12-18T03:59:18.458Z,98426.73
2022-12-18T04:01:52.617Z,98424.77
2022-12-18T04:04:23.255Z,98427.45
2022-12-18T04:06:53.568Z,98434.83
2022-12-18T04:09:23.782Z,98436.71
2022-12-18T04:11:54.681Z,98440.53
2022-12-18T04:14:25.025Z,98435.56
2022-12-18T04:16:55.002Z,98424.20
2022-12-18T04:19:25.091Z,98433.32
2022-12-18T04:21:55.715Z,98439.33
2022-12-18T04:24:26.143Z,98439.84
2022-12-18T04:26:56.783Z,98439.28
2022-12-18T04:29:28.543Z,98443.06
2022-12-18T04:31:58.836Z,98446.88
2022-12-18T04:34:29.131Z,98451.47
2022-12-18T04:37:02.803Z,98457.42
2022-12-18T04:39:33.428Z,98462.58
2022-12-18T04:42:05.126Z,98471.27
2022-12-18T04:44:37.769Z,98472.58
2022-12-18T04:47:07.718Z,98466.52
2022-12-18T04:49:38.019Z,98466.50
2022-12-18T04:52:08.598Z,98466.67
2022-12-18T04:54:38.287Z,98474.24
2022-12-18T04:57:09.063Z,98468.22
2022-12-18T04:59:40.664Z,98471.17
2022-12-18T05:02:10.997Z,98473.85
2022-12-18T05:04:41.375Z,98472.97
2022-12-18T05:07:11.671Z,98473.46
2022-12-18T05:09:41.971Z,98479.15
2022-12-18T05:12:12.501Z,98474.17
2022-12-18T05:14:42.756Z,98483.14
2022-12-18T05:17:13.121Z,98473.53
2022-12-18T05:19:44.615Z,98478.11
2022-12-18T05:22:15.015Z,98478.88
2022-12-18T05:24:45.435Z,98479.36
2022-12-18T05:27:15.684Z,98485.08
2022-12-18T05:29:46.186Z,98479.56
2022-12-18T05:32:17.400Z,98489.00
2022-12-18T05:34:48.699Z,98489.00
2022-12-18T05:37:19.566Z,98489.48
2022-12-18T05:39:52.912Z,98488.34
2022-12-18T05:42:23.221Z,98491.02
2022-12-18T05:44:54.859Z,98489.59
2022-12-18T05:47:25.206Z,98481.88
2022-12-18T05:49:55.536Z,98480.77
2022-12-18T05:52:25.858Z,98473.58
2022-12-18T05:54:56.225Z,98474.88
2022-12-18T05:57:26.636Z,98472.09
2022-12-18T06:00:15.974Z,98468.26
2022-12-18T06:02:52.050Z,98475.56
2022-12-18T06:05:22.158Z,98469.44
2022-12-18T06:07:52.368Z,98469.66
2022-12-18T06:10:24.030Z,98466.02
2022-12-18T06:12:54.346Z,98462.95
2022-12-18T06:15:26.007Z,98466.97
2022-12-18T06:18:00.187Z,98464.19
2022-12-18T06:20:33.381Z,98463.58
2022-12-18T06:23:03.472Z,98459.15
2022-12-18T06:25:35.234Z,98459.09
2022-12-18T06:28:05.325Z,98459.84
2022-12-18T06:30:35.446Z,98453.22
2022-12-18T06:33:05.519Z,98456.17
2022-12-18T06:35:35.734Z,98454.23
2022-12-18T06:38:06.148Z,98449.77
2022-12-18T06:40:36.608Z,98448.34
2022-12-18T06:43:06.754Z,98442.83
2022-12-18T06:45:39.449Z,98449.58
2022-12-18T06:48:12.990Z,98444.09
2022-12-18T06:50:47.621Z,98424.56
2022-12-18T06:53:17.964Z,98424.56
2022-12-18T06:55:49.260Z,98441.11
2022-12-18T06:58:20.438Z,98441.11
2022-12-18T07:00:51.290Z,98435.05
2022-12-18T07:03:23.931Z,98430.89
2022-12-18T07:05:54.057Z,98436.83
2022-12-18T07:08:24.620Z,98419.73
2022-12-18T07:10:57.742Z,98426.02
2022-12-18T07:13:29.257Z,98426.27
2022-12-18T07:16:02.605Z,98421.28
2022-12-18T07:18:36.901Z,98410.22
2022-12-18T07:21:07.807Z,98423.09
2022-12-18T07:23:41.355Z,98419.98
2022-12-18T07:26:13.901Z,98416.14
2022-12-18T07:28:44.023Z,98414.17
2022-12-18T07:31:16.986Z,98420.92
2022-12-18T07:33:49.594Z,98414.58
2022-12-18T07:36:22.870Z,98411.78
2022-12-18T07:38:54.618Z,98413.30
2022-12-18T07:41:24.769Z,98422.01
2022-12-18T07:43:58.328Z,98424.16
2022-12-18T07:46:27.146Z,98421.88
2022-12-18T07:48:57.668Z,98430.30
2022-12-18T07:51:27.833Z,98427.20
2022-12-18T07:53:59.986Z,98420.55
2022-12-18T07:56:31.466Z,98425.06
2022-12-18T07:59:02.203Z,98425.13
2022-12-18T08:01:32.738Z,98425.45
2022-12-18T08:04:02.998Z,98423.63
2022-12-18T08:06:33.139Z,98423.91
2022-12-18T08:09:03.389Z,98429.96
2022-12-18T08:11:33.538Z,98429.71
2022-12-18T08:14:03.719Z,98426.77
2022-12-18T08:16:34.157Z,98427.84
2022-12-18T08:19:04.545Z,98429.84
2022-12-18T08:21:34.800Z,98433.72
2022-12-18T08:24:04.850Z,98432.95
2022-12-18T08:26:34.842Z,98434.89
2022-12-18T08:29:05.270Z,98429.52
2022-12-18T08:31:36.602Z,98432.84
2022-12-18T08:34:07.159Z,98432.91
2022-12-18T08:36:41.886Z,98432.47
2022-12-18T08:39:12.240Z,98430.06
2022-12-18T08:41:47.194Z,98424.65
2022-12-18T08:44:38.229Z,98427.75
2022-12-18T08:47:09.888Z,98431.09
2022-12-18T08:49:40.136Z,98437.11
2022-12-18T08:52:10.735Z,98432.05
2022-12-18T08:54:40.994Z,98432.61
2022-12-18T08:57:11.407Z,98434.86
2022-12-18T08:59:41.802Z,98443.11
2022-12-18T09:02:13.881Z,98438.26
2022-12-18T09:04:46.847Z,98436.96
2022-12-18T09:07:18.238Z,98435.38
2022-12-18T09:09:48.819Z,98426.41
2022-12-18T09:12:19.662Z,98424.59
2022-12-18T09:14:50.706Z,98413.31
2022-12-18T09:17:21.558Z,98412.77
2022-12-18T09:19:53.457Z,98414.92
2022-12-18T09:22:26.677Z,98421.42
2022-12-18T09:24:55.718Z,98418.70
2022-12-18T09:27:26.103Z,98414.33
2022-12-18T09:29:56.428Z,98418.41
2022-12-18T09:32:26.248Z,98415.91
2022-12-18T09:34:57.351Z,98417.81
2022-12-18T09:37:27.624Z,98407.67
2022-12-18T09:39:59.361Z,98416.64
2022-12-18T09:42:29.993Z,98414.96
2022-12-18T09:45:01.802Z,98414.67
2022-12-18T09:47:33.707Z,98415.75
2022-12-18T09:50:06.013Z,98416.20
2022-12-18T09:52:39.102Z,98414.26
2022-12-18T09:55:20.994Z,98418.28
2022-12-18T09:58:10.184Z,98413.05
2022-12-18T10:00:40.384Z,98413.31
2022-12-18T10:03:14.833Z,98418.38
2022-12-18T10:06:04.936Z,98419.16
2022-12-18T10:08:52.722Z,98422.11
2022-12-18T10:11:25.695Z,98422.33
2022-12-18T10:14:12.432Z,98411.27
2022-12-18T10:16:57.743Z,98422.48
2022-12-18T10:19:39.760Z,98424.60
2022-12-18T10:22:30.967Z,98424.00
2022-12-18T10:28:18.524Z,98430.98
2022-12-18T10:30:50.859Z,98425.19
2022-12-18T10:33:22.314Z,98427.30
2022-12-18T10:35:56.842Z,98420.64
2022-12-18T10:38:30.904Z,98427.45
2022-12-18T10:41:11.469Z,98422.26
2022-12-18T10:43:43.886Z,98425.73
2022-12-18T10:46:17.710Z,98424.59
2022-12-18T10:48:53.761Z,98426.74
2022-12-18T10:51:31.564Z,98423.95
2022-12-18T10:54:16.436Z,98431.52
2022-12-18T10:56:46.641Z,98430.37
2022-12-18T10:59:18.337Z,98437.11
2022-12-18T11:01:59.484Z,98433.48
2022-12-18T11:04:31.375Z,98436.75
2022-12-18T11:07:08.016Z,98438.36
2022-12-18T11:09:39.337Z,98437.75
2022-12-18T11:12:14.933Z,98442.05
2022-12-18T11:14:59.584Z,98440.40
2022-12-18T11:17:36.784Z,98438.67
2022-12-18T11:20:09.195Z,98440.47
2022-12-18T11:22:40.193Z,98438.00
2022-12-18T11:25:32.598Z,98438.75
2022-12-18T11:27:51.716Z,98438.14
2022-12-18T11:30:35.901Z,98443.30
2022-12-18T11:33:11.076Z,98431.51
2022-12-18T11:35:47.132Z,98439.06
2022-12-18T11:38:22.765Z,98439.60
2022-12-18T11:41:10.916Z,98441.42
2022-12-18T11:43:44.262Z,98442.17
2022-12-18T11:46:20.009Z,98449.73
2022-12-18T11:48:57.153Z,98442.02
2022-12-18T11:52:05.353Z,98452.91
2022-12-18T11:54:35.677Z,98450.08
2022-12-18T11:57:11.669Z,98453.55
2022-12-18T12:00:09.127Z,98449.93
2022-12-18T12:02:42.200Z,98454.25
2022-12-18T12:05:39.843Z,98449.56
2022-12-18T12:08:40.464Z,98455.47
2022-12-18T12:11:31.302Z,98460.59
2022-12-18T12:14:22.280Z,98463.30
2022-12-18T12:17:10.511Z,98466.96
2022-12-18T12:20:01.310Z,98471.25
2022-12-18T12:22:42.925Z,98473.88
2022-12-18T12:25:25.661Z,98480.84
2022-12-18T12:28:07.545Z,98485.72
2022-12-18T12:30:40.302Z,98494.33
2022-12-18T12:33:13.331Z,98494.80
2022-12-18T12:36:04.287Z,98499.33
2022-12-18T12:38:52.678Z,98506.57
2022-12-18T12:41:43.404Z,98517.98
2022-12-18T12:44:17.111Z,98519.27
2022-12-18T12:46:47.909Z,98522.22
2022-12-18T12:49:20.672Z,98532.19
2022-12-18T12:51:59.495Z,98541.94
2022-12-18T12:54:31.535Z,98540.39
2022-12-18T12:57:05.164Z,98552.98
2022-12-18T12:59:55.778Z,98563.84
2022-12-18T13:02:28.977Z,98563.23
2022-12-18T13:08:22.922Z,98566.05
2022-12-18T13:10:56.699Z,98571.70
2022-12-18T13:13:27.542Z,98573.56
2022-12-18T13:16:11.299Z,98572.11
2022-12-18T13:18:44.494Z,98583.44
2022-12-18T13:21:32.527Z,98568.09
2022-12-18T13:24:20.741Z,98562.48
2022-12-18T13:26:52.684Z,98561.50
2022-12-18T13:29:45.921Z,98568.95
2022-12-18T13:32:27.742Z,98567.66
2022-12-18T13:35:26.453Z,98573.49
2022-12-18T13:37:56.976Z,98576.63
2022-12-18T13:40:52.355Z,98580.09
2022-12-18T13:43:26.482Z,98557.11
2022-12-18T13:46:20.964Z,98557.11
2022-12-18T13:48:57.329Z,98580.36
2022-12-18T13:51:27.379Z,98583.21
2022-12-18T13:54:25.932Z,98582.98
2022-12-18T13:56:57.587Z,98585.23
2022-12-18T13:59:39.832Z,98591.59
2022-12-18T14:02:26.605Z,98595.26
2022-12-18T14:04:57.455Z,98597.88
2022-12-18T14:07:30.589Z,98593.95
2022-12-18T14:12:53.897Z,98602.05
2022-12-18T14:15:31.068Z,98607.02
2022-12-18T14:18:26.898Z,98600.80
2022-12-18T14:20:59.841Z,98605.48
2022-12-18T14:23:35.539Z,98596.80
2022-12-18T14:26:06.744Z,98603.70
2022-12-18T14:28:38.161Z,98604.03
2022-12-18T14:31:09.863Z,98602.72
2022-12-18T14:33:41.386Z,98603.00
2022-12-18T14:36:17.984Z,98611.03
2022-12-18T14:38:49.571Z,98608.86
2022-12-18T14:41:21.092Z,98610.28
2022-12-18T14:43:53.061Z,98624.31
2022-12-18T14:46:40.365Z,98612.08
2022-12-18T14:49:30.615Z,98618.47
2022-12-18T14:52:02.039Z,98630.94
2022-12-18T14:54:32.994Z,98616.28
2022-12-18T14:57:23.819Z,98612.84
2022-12-18T14:59:54.832Z,98611.48
2022-12-18T15:02:29.768Z,98618.64
2022-12-18T15:05:12.931Z,98624.95
2022-12-18T15:07:47.132Z,98635.95
2022-12-18T15:10:22.270Z,98637.65
2022-12-18T15:13:05.245Z,98640.44
2022-12-18T15:15:42.025Z,98644.91
2022-12-18T15:18:14.987Z,98648.20
2022-12-18T15:20:48.588Z,98651.53
2022-12-18T15:23:23.756Z,98642.55
2022-12-18T15:26:12.374Z,98648.89
2022-12-18T15:31:38.698Z,98652.22
2022-12-18T15:34:14.517Z,98652.41
2022-12-18T15:36:44.575Z,98656.95
2022-12-18T15:39:15.459Z,98652.52
2022-12-18T15:44:35.256Z,98657.88
2022-12-18T15:47:05.652Z,98662.75
2022-12-18T15:49:36.054Z,98664.61
2022-12-18T15:52:06.847Z,98672.19
2022-12-18T15:54:54.426Z,98671.62
2022-12-18T15:57:25.678Z,98675.41
2022-12-18T15:59:58.585Z,98670.09
2022-12-18T16:02:30.296Z,98677.75
2022-12-18T16:05:00.574Z,98678.77
2022-12-18T16:07:32.740Z,98680.14
2022-12-18T16:10:03.233Z,98679.55
2022-12-18T16:12:33.169Z,98683.59
2022-12-18T16:15:06.803Z,98685.18
2022-12-18T16:17:37.462Z,98683.53
2022-12-18T16:20:08.477Z,98684.02
2022-12-18T16:22:38.959Z,98678.23
2022-12-18T16:25:13.482Z,98676.30
2022-12-18T16:27:43.891Z,98682.00
2022-12-18T16:30:21.295Z,98682.77
2022-12-18T16:32:51.951Z,98674.28
2022-12-18T16:35:23.139Z,98673.69
2022-12-18T16:37:54.256Z,98679.41
2022-12-18T16:40:24.429Z,98672.73
2022-12-18T16:42:54.844Z,98676.02
2022-12-18T16:45:26.803Z,98666.67
2022-12-18T16:47:57.111Z,98663.38
2022-12-18T16:50:27.693Z,98670.44
2022-12-18T16:52:57.920Z,98669.83
2022-12-18T16:55:28.106Z,98661.06
2022-12-18T16:57:58.578Z,98651.73
2022-12-18T17:00:32.488Z,98654.69
2022-12-18T17:03:02.344Z,98645.61
2022-12-18T17:05:35.376Z,98642.05
2022-12-18T17:08:05.923Z,98642.59
2022-12-18T17:10:37.505Z,98643.95
2022-12-18T17:13:07.922Z,98646.75
2022-12-18T17:15:38.925Z,98641.89
2022-12-18T17:18:09.219Z,98639.72
2022-12-18T17:20:40.738Z,98630.76
2022-12-18T17:23:11.100Z,98628.63
2022-12-18T17:25:44.854Z,98624.58
2022-12-18T17:28:14.732Z,98620.77
2022-12-18T17:30:45.128Z,98606.62
2022-12-18T17:33:15.500Z,98609.41
2022-12-18T17:35:45.903Z,98598.53
2022-12-18T17:38:17.598Z,98588.20
2022-12-18T17:40:47.692Z,98578.14
2022-12-18T17:43:19.348Z,98574.64
2022-12-18T17:45:49.448Z,98564.58
2022-12-18T17:48:19.784Z,98565.17
2022-12-18T17:50:52.374Z,98550.19
2022-12-18T17:53:23.140Z,98542.53
2022-12-18T17:56:01.501Z,98539.88
2022-12-18T17:58:31.972Z,98535.82
2022-12-18T18:01:02.347Z,98529.34
2022-12-18T18:03:34.050Z,98522.84
2022-12-18T18:06:08.269Z,98519.33
2022-12-18T18:08:38.504Z,98512.55
2022-12-18T18:11:34.394Z,98495.95
2022-12-18T18:14:06.030Z,98495.95
2022-12-18T18:16:41.609Z,98488.11
2022-12-18T18:19:13.598Z,98482.66
2022-12-18T18:21:45.310Z,98480.27
2022-12-18T18:24:35.617Z,98465.28
2022-12-18T18:27:06.251Z,98461.17
2022-12-18T18:29:37.211Z,98456.20
2022-12-18T18:32:07.720Z,98459.72
2022-12-18T18:34:38.343Z,98449.28
2022-12-18T18:37:08.409Z,98450.34
2022-12-18T18:39:38.796Z,98447.05
2022-12-18T18:42:09.076Z,98442.09
2022-12-18T18:44:48.490Z,98431.97
2022-12-18T18:47:14.979Z,98425.64
2022-12-18T18:49:45.307Z,98420.41
2022-12-18T18:52:15.559Z,98412.44
2022-12-18T18:55:10.807Z,98400.41
2022-12-18T18:57:20.791Z,98400.95
2022-12-18T18:59:51.503Z,98393.80
2022-12-18T19:02:22.553Z,98396.50
2022-12-18T19:04:53.355Z,98385.83
2022-12-18T19:07:30.704Z,98381.96
2022-12-18T19:10:15.293Z,98378.41
2022-12-18T19:13:03.020Z,98372.66
2022-12-18T19:15:35.619Z,98361.96
2022-12-18T19:18:04.983Z,98355.91
2022-12-18T19:20:35.204Z,98357.27
2022-12-18T19:23:07.986Z,98355.08
2022-12-18T19:25:43.431Z,98349.34
2022-12-18T19:28:21.825Z,98354.50
2022-12-18T19:30:52.441Z,98352.85
2022-12-18T19:33:42.475Z,98348.16
2022-12-18T19:35:57.434Z,98344.61
2022-12-18T19:38:28.834Z,98354.72
2022-12-18T19:41:00.365Z,98338.02
2022-12-18T19:43:30.429Z,98334.45
2022-12-18T19:46:00.509Z,98339.09
2022-12-18T19:48:30.786Z,98335.55
2022-12-18T19:51:00.838Z,98326.76
2022-12-18T19:53:31.206Z,98328.12
2022-12-18T19:56:01.657Z,98321.02
2022-12-18T19:58:31.896Z,98314.96
2022-12-18T20:01:02.912Z,98312.77
2022-12-18T20:03:37.543Z,98305.63
2022-12-18T20:06:31.173Z,98300.98
2022-12-18T20:09:04.343Z,98302.03
2022-12-18T20:11:41.206Z,98302.34
2022-12-18T20:14:07.482Z,98302.58
2022-12-18T20:16:37.616Z,98290.83
2022-12-18T20:19:09.303Z,98290.52
2022-12-18T20:21:39.895Z,98291.61
2022-12-18T20:24:11.407Z,98291.89
2022-12-18T20:26:45.082Z,98290.24
2022-12-18T20:29:15.258Z,98291.02
2022-12-18T20:31:45.303Z,98289.38
2022-12-18T20:34:58.776Z,98285.83
2022-12-18T20:36:55.976Z,98280.05
2022-12-18T20:39:27.367Z,98282.50
2022-12-18T20:42:01.557Z,98269.39
2022-12-18T20:44:31.720Z,98268.56
2022-12-18T20:47:08.602Z,98274.55
2022-12-18T20:49:34.880Z,98267.98
2022-12-18T20:52:05.269Z,98272.63
2022-12-18T20:54:35.577Z,98280.00
2022-12-18T20:57:05.656Z,98276.13
2022-12-18T20:59:35.792Z,98284.05
2022-12-18T21:02:06.435Z,98285.11
2022-12-18T21:04:36.981Z,98281.01
2022-12-18T21:07:07.455Z,98285.92
2022-12-18T21:09:38.592Z,98284.28
2022-12-18T21:12:33.392Z,98276.87
2022-12-18T21:15:04.098Z,98276.87
2022-12-18T21:17:34.280Z,98283.97
2022-12-18T21:20:06.000Z,98279.33
2022-12-18T21:22:36.032Z,98281.77
2022-12-18T21:25:06.432Z,98281.19
2022-12-18T21:27:36.482Z,98271.86
2022-12-18T21:30:08.857Z,98269.67
2022-12-18T21:32:38.800Z,98273.49
2022-12-18T21:35:11.614Z,98272.13
2022-12-18T21:37:41.614Z,98266.90
2022-12-18T21:40:16.147Z,98272.91
2022-12-18T21:43:03.968Z,98272.59
2022-12-18T21:45:34.080Z,98273.69
2022-12-18T21:48:04.175Z,98261.94
2022-12-18T21:50:34.504Z,98264.39
2022-12-18T21:53:04.967Z,98262.67
2022-12-18T21:55:34.896Z,98264.86
2022-12-18T21:58:05.497Z,98259.11
2022-12-18T22:00:37.041Z,98253.66
2022-12-18T22:03:18.303Z,98255.22
2022-12-18T22:05:38.783Z,98259.86
2022-12-18T22:08:09.181Z,98265.87
2022-12-18T22:10:39.671Z,98263.91
2022-12-18T22:13:10.523Z,98254.35
2022-12-18T22:15:40.933Z,98257.94
2022-12-18T22:18:11.168Z,98266.13
2022-12-18T22:20:41.402Z,98265.00
2022-12-18T22:23:11.434Z,98260.31
2022-12-18T22:25:41.474Z,98265.00
2022-12-18T22:28:29.173Z,98263.87
2022-12-18T22:30:59.890Z,98269.33
2022-12-18T22:33:30.500Z,98268.81
2022-12-18T22:36:01.187Z,98265.23
2022-12-18T22:38:31.570Z,98263.59
2022-12-18T22:41:01.965Z,98265.50
2022-12-18T22:43:32.169Z,98257.30
2022-12-18T22:46:02.778Z,98253.75
2022-12-18T22:48:35.919Z,98255.89
2022-12-18T22:51:06.048Z,98259.16
2022-12-18T22:53:36.271Z,98259.40
2022-12-18T22:56:06.489Z,98262.13
2022-12-18T22:58:37.027Z,98264.58
2022-12-18T23:01:07.792Z,98266.49
2022-12-18T23:03:37.853Z,98268.63
2022-12-18T23:06:08.484Z,98265.08
2022-12-18T23:08:38.695Z,98260.67
2022-12-18T23:11:08.813Z,98256.53
2022-12-18T23:13:38.955Z,98259.27
2022-12-18T23:16:10.076Z,98259.80
2022-12-18T23:18:40.643Z,98255.12
2022-12-18T23:21:12.538Z,98260.30
2022-12-18T23:23:42.865Z,98270.94
2022-12-18T23:26:14.942Z,98273.63
2022-12-18T23:28:44.930Z,98278.77
2022-12-18T23:31:20.059Z,98269.48
2022-12-18T23:33:50.310Z,98259.34
2022-12-18T23:36:21.175Z,98262.30
2022-12-18T23:38:53.609Z,98268.61
2022-12-18T23:41:24.755Z,98268.89
2022-12-18T23:43:55.314Z,98267.52
2022-12-18T23:46:33.197Z,98273.85
2022-12-18T23:49:05.851Z,98276.09
2022-12-18T23:51:37.415Z,98271.77
2022-12-18T23:54:08.935Z,98274.23
2022-12-18T23:56:39.251Z,98282.47
2022-12-18T23:59:09.679Z,98271.31
